Historyczne dane pomiarowe

Dodano dane terminowe – wersja testowa.

Dane z okresu 1951-2019

Wersja bazy: 1.34 [2019-03-16, lista zmian], aktualizacja planowana na 2019-04-15

Dane meteo z obszaru Polski uzyskane na podstawie danych udostępnionych przez Instytut Meteorologii i Gospodarki Wodnej – Państwowy Instytut Badawczy.

 

Wybierz Datę:    

       

TemperaturaWilgotnośćWiatrCiśnienieOpadyŚniegCzas trwania zjawisk
 Stacja t tx tn tng RH VA  wxwx mslp ppp RRR   cm mm wxwxwxwxwxwxwx
1962-02-25-18.5 -8.6-26.0- 91.0- 5.0 0.0---- 0.0-- 70---------
1962-02-26-12.3 -5.7-22.6- 89.5- 6.0 0.0---- 0.0-- 68---------
1962-02-27 -4.4 -0.4-12.6- 84.3- 7.7 0.0---- 1.5-- 66---------
1962-02-28 -1.3 0.6 -3.5- 97.8- 8.0 1.3---- 0.0-- 68---------
1962-03-01 -2.0 1.4 -4.0- 91.8- 6.7 2.7---- 0.0-- 65---------
1962-03-02 -2.9 0.5 -4.8- 92.0- 8.0 0.0---- 0.1-- 61---------
1962-03-03 -1.5 1.4 -4.9- 93.5- 8.0 1.0---- 0.0-- 55---------
1962-03-04 3.1 5.6 -4.5- 89.3- 7.3 7.0---- 0.1-- 50---------
1962-03-05 4.9 10.5 3.0- 88.3- 7.3 1.0---- 1.6-- 37---------
1962-03-06 -0.3 6.0 -2.5- 93.3- 8.0 5.0---- 1.4-- 25---------
1962-03-07 -5.8 -2.2 -7.3- 89.8- 8.0 2.7---- 2.1-- 20---------
1962-03-08-11.0 -3.5-14.7- 89.5- 2.7 1.3---- 0.0-- 25---------
1962-03-09-12.2 0.4-20.4- 92.5- 3.0 0.3---- 0.0-- 23---------
1962-03-10 -1.7 2.4-15.9- 87.8- 5.7 3.3---- 0.0-- 19---------
1962-03-11 0.3 3.8 -3.7- 93.0- 8.0 1.7---- 1.7-- 16---------
1962-03-12 0.4 1.7 0.1- 99.0- 8.0 1.0---- 11.1-- 13---------
1962-03-13 -7.2 0.3 -8.9- 88.5- 7.7 3.7---- 0.7-- 11---------
1962-03-14-10.0 -5.2-15.2- 85.5- 5.0 1.0---- 0.0-- 12---------
1962-03-15 -9.1 -7.7-11.8- 79.3- 8.0 7.7---- 1.8-- 12---------
1962-03-16 -9.6 -8.1-10.4- 87.8- 8.0 11.0---- 2.0-- 16---------
1962-03-17 -9.3 -7.3-10.7- 88.8- 7.7 2.0---- 2.9-- 21---------
1962-03-18 -8.2 -4.5-11.3- 88.8- 6.3 2.0---- 0.0-- 28---------
1962-03-19 -9.8 -0.2-18.0- 87.0- 4.0 0.0---- 0.0-- 28---------
1962-03-20-12.1 -0.5-20.3- 90.3- 4.7 0.3---- 0.0-- 26---------
1962-03-21-10.0 -2.4-20.5- 87.0- 5.7 0.3---- 0.0-- 25---------
1962-03-22 -5.6 -3.2 -8.9- 89.8- 8.0 3.3---- 1.1-- 24---------
1962-03-23 -4.9 -3.0 -6.9- 92.0- 8.0 3.7---- 2.0-- 26---------
1962-03-24 -3.3 1.3 -7.8- 86.3- 7.7 0.0---- 0.3-- 30---------
1962-03-25 -8.5 -2.1-18.6- 87.5- 6.7 1.7---- 0.0-- 27---------
1962-03-26 -9.9 -1.9-19.2- 82.5- 0.7 1.3---- 0.0-- 27---------
128.2 ms

 

Źródłem pochodzenia danych jest Instytut Meteorologii i Gospodarki Wodnej – Państwowy Instytut Badawczy. Dane Instytutu Meteorologii i Gospodarki Wodnej – Państwowego Instytutu Badawczego zostały przetworzone.

Dane źródłowe można odnaleźć na stronie https://dane.imgw.pl